sensor_id;sensor_type;location;lat;lon;timestamp;temperature;humidity
69634;DHT22;56860;51.144;16.954;2023-12-28T00:00:16;4.6;35.5
69634;DHT22;56860;51.144;16.954;2023-12-28T00:01:16;4.6;35.4
69634;DHT22;56860;51.144;16.954;2023-12-28T00:02:16;4.7;35.7
69634;DHT22;56860;51.144;16.954;2023-12-28T00:03:16;4.6;35.8
69634;DHT22;56860;51.144;16.954;2023-12-28T00:04:16;4.5;36.2
69634;DHT22;56860;51.144;16.954;2023-12-28T00:05:16;4.4;36.5
69634;DHT22;56860;51.144;16.954;2023-12-28T00:06:16;4.4;36.6
69634;DHT22;56860;51.144;16.954;2023-12-28T00:07:16;4.4;36.9
69634;DHT22;56860;51.144;16.954;2023-12-28T00:08:16;4.3;37.1
69634;DHT22;56860;51.144;16.954;2023-12-28T00:09:16;4.3;37.2
69634;DHT22;56860;51.144;16.954;2023-12-28T00:10:16;4.3;37.2
69634;DHT22;56860;51.144;16.954;2023-12-28T00:11:16;4.3;37.2
69634;DHT22;56860;51.144;16.954;2023-12-28T00:12:16;unavailable;unavailable
69634;DHT22;56860;51.144;16.954;2023-12-28T00:13:16;4.3;37.3
69634;DHT22;56860;51.144;16.954;2023-12-28T00:14:16;4.2;37.6
69634;DHT22;56860;51.144;16.954;2023-12-28T00:15:16;4.2;37.6
69634;DHT22;56860;51.144;16.954;2023-12-28T00:16:16;4.2;37.6
69634;DHT22;56860;51.144;16.954;2023-12-28T00:17:16;4.3;37.5
69634;DHT22;56860;51.144;16.954;2023-12-28T00:18:16;4.3;37.3
69634;DHT22;56860;51.144;16.954;2023-12-28T00:19:16;4.5;37.2
69634;DHT22;56860;51.144;16.954;2023-12-28T00:20:17;4.5;37.1
69634;DHT22;56860;51.144;16.954;2023-12-28T00:21:16;4.5;36.7
69634;DHT22;56860;51.144;16.954;2023-12-28T00:22:16;4.5;36.8
69634;DHT22;56860;51.144;16.954;2023-12-28T00:23:17;4.5;36.9
69634;DHT22;56860;51.144;16.954;2023-12-28T00:24:19;4.5;36.8
69634;DHT22;56860;51.144;16.954;2023-12-28T00:25:16;4.5;36.7
69634;DHT22;56860;51.144;16.954;2023-12-28T00:26:16;4.5;36.5
69634;DHT22;56860;51.144;16.954;2023-12-28T00:27:16;4.5;36.5
69634;DHT22;56860;51.144;16.954;2023-12-28T00:28:16;4.5;36.5
69634;DHT22;56860;51.144;16.954;2023-12-28T00:29:16;4.5;36.5
69634;DHT22;56860;51.144;16.954;2023-12-28T00:30:16;4.5;36.4
69634;DHT22;56860;51.144;16.954;2023-12-28T00:31:16;4.4;36.5
69634;DHT22;56860;51.144;16.954;2023-12-28T00:32:16;4.4;36.6
69634;DHT22;56860;51.144;16.954;2023-12-28T00:33:16;4.3;36.9
69634;DHT22;56860;51.144;16.954;2023-12-28T00:34:16;4.3;36.8
69634;DHT22;56860;51.144;16.954;2023-12-28T00:35:16;4.2;36.8
69634;DHT22;56860;51.144;16.954;2023-12-28T00:36:16;4.3;36.8
69634;DHT22;56860;51.144;16.954;2023-12-28T00:37:16;4.2;36.9
69634;DHT22;56860;51.144;16.954;2023-12-28T00:38:16;4.2;36.9
69634;DHT22;56860;51.144;16.954;2023-12-28T00:39:16;4.2;36.9
69634;DHT22;56860;51.144;16.954;2023-12-28T00:40:16;4.2;36.9
69634;DHT22;56860;51.144;16.954;2023-12-28T00:41:18;4.2;36.9
69634;DHT22;56860;51.144;16.954;2023-12-28T00:42:17;4.2;36.9
69634;DHT22;56860;51.144;16.954;2023-12-28T00:43:16;4.2;36.9
69634;DHT22;56860;51.144;16.954;2023-12-28T00:44:16;4.2;37.1
69634;DHT22;56860;51.144;16.954;2023-12-28T00:45:16;4.1;37.5
69634;DHT22;56860;51.144;16.954;2023-12-28T00:46:16;4.0;37.7
69634;DHT22;56860;51.144;16.954;2023-12-28T00:47:16;3.9;38.1
69634;DHT22;56860;51.144;16.954;2023-12-28T00:48:16;3.9;38.4
69634;DHT22;56860;51.144;16.954;2023-12-28T00:49:16;3.8;38.9
69634;DHT22;56860;51.144;16.954;2023-12-28T00:50:16;3.7;38.8
69634;DHT22;56860;51.144;16.954;2023-12-28T00:51:16;3.7;39.0
69634;DHT22;56860;51.144;16.954;2023-12-28T00:52:16;3.8;39.1
69634;DHT22;56860;51.144;16.954;2023-12-28T00:53:16;3.8;39.2
69634;DHT22;56860;51.144;16.954;2023-12-28T00:54:16;3.8;39.2
69634;DHT22;56860;51.144;16.954;2023-12-28T00:55:16;3.9;39.1
69634;DHT22;56860;51.144;16.954;2023-12-28T00:56:17;3.9;39.1
69634;DHT22;56860;51.144;16.954;2023-12-28T00:57:16;4.0;38.8
69634;DHT22;56860;51.144;16.954;2023-12-28T00:58:16;4.0;38.6
69634;DHT22;56860;51.144;16.954;2023-12-28T00:59:16;4.1;38.4
69634;DHT22;56860;51.144;16.954;2023-12-28T01:00:16;4.2;38.4
69634;DHT22;56860;51.144;16.954;2023-12-28T01:01:16;4.2;38.4
69634;DHT22;56860;51.144;16.954;2023-12-28T01:02:16;4.2;38.2
69634;DHT22;56860;51.144;16.954;2023-12-28T01:03:16;4.2;38.2
69634;DHT22;56860;51.144;16.954;2023-12-28T01:04:16;4.2;38.2
69634;DHT22;56860;51.144;16.954;2023-12-28T01:05:16;4.3;38.3
69634;DHT22;56860;51.144;16.954;2023-12-28T01:06:16;4.3;38.2
69634;DHT22;56860;51.144;16.954;2023-12-28T01:07:16;4.3;37.9
69634;DHT22;56860;51.144;16.954;2023-12-28T01:08:16;4.3;38.0
69634;DHT22;56860;51.144;16.954;2023-12-28T01:09:16;4.3;38.0
69634;DHT22;56860;51.144;16.954;2023-12-28T01:10:16;4.4;38.1
69634;DHT22;56860;51.144;16.954;2023-12-28T01:11:16;4.4;37.7
69634;DHT22;56860;51.144;16.954;2023-12-28T01:12:16;4.5;38.0
69634;DHT22;56860;51.144;16.954;2023-12-28T01:13:18;4.5;37.9
69634;DHT22;56860;51.144;16.954;2023-12-28T01:14:16;4.5;37.8
69634;DHT22;56860;51.144;16.954;2023-12-28T01:15:16;4.5;38.0
69634;DHT22;56860;51.144;16.954;2023-12-28T01:16:16;4.5;38.1
69634;DHT22;56860;51.144;16.954;2023-12-28T01:17:16;4.5;37.6
69634;DHT22;56860;51.144;16.954;2023-12-28T01:18:16;4.5;37.8
69634;DHT22;56860;51.144;16.954;2023-12-28T01:19:16;4.5;37.9
69634;DHT22;56860;51.144;16.954;2023-12-28T01:20:16;4.5;38.0
69634;DHT22;56860;51.144;16.954;2023-12-28T01:21:16;4.4;38.1
69634;DHT22;56860;51.144;16.954;2023-12-28T01:22:16;4.4;38.3
69634;DHT22;56860;51.144;16.954;2023-12-28T01:23:16;4.5;38.4
69634;DHT22;56860;51.144;16.954;2023-12-28T01:24:17;4.5;38.5
69634;DHT22;56860;51.144;16.954;2023-12-28T01:25:16;4.5;38.5
69634;DHT22;56860;51.144;16.954;2023-12-28T01:26:16;4.5;38.4
69634;DHT22;56860;51.144;16.954;2023-12-28T01:27:16;4.5;38.3
69634;DHT22;56860;51.144;16.954;2023-12-28T01:28:16;4.4;38.3
69634;DHT22;56860;51.144;16.954;2023-12-28T01:29:16;4.4;38.5
69634;DHT22;56860;51.144;16.954;2023-12-28T01:30:17;4.3;38.7
69634;DHT22;56860;51.144;16.954;2023-12-28T01:31:16;4.4;38.8
69634;DHT22;56860;51.144;16.954;2023-12-28T01:32:16;4.3;38.8
69634;DHT22;56860;51.144;16.954;2023-12-28T01:33:16;4.4;38.8
69634;DHT22;56860;51.144;16.954;2023-12-28T01:34:16;4.3;38.9
69634;DHT22;56860;51.144;16.954;2023-12-28T01:35:16;4.3;39.0
69634;DHT22;56860;51.144;16.954;2023-12-28T01:36:17;4.3;39.0
69634;DHT22;56860;51.144;16.954;2023-12-28T01:37:16;4.4;38.9
69634;DHT22;56860;51.144;16.954;2023-12-28T01:38:16;4.3;38.6
69634;DHT22;56860;51.144;16.954;2023-12-28T01:39:16;4.2;38.7
69634;DHT22;56860;51.144;16.954;2023-12-28T01:40:16;4.2;38.9
69634;DHT22;56860;51.144;16.954;2023-12-28T01:41:16;4.1;39.2
69634;DHT22;56860;51.144;16.954;2023-12-28T01:42:16;4.1;39.0
69634;DHT22;56860;51.144;16.954;2023-12-28T01:43:16;4.0;38.9
69634;DHT22;56860;51.144;16.954;2023-12-28T01:44:16;4.0;38.7
69634;DHT22;56860;51.144;16.954;2023-12-28T01:45:16;4.0;38.5
69634;DHT22;56860;51.144;16.954;2023-12-28T01:46:17;3.9;38.2
69634;DHT22;56860;51.144;16.954;2023-12-28T01:47:16;3.9;38.2
69634;DHT22;56860;51.144;16.954;2023-12-28T01:48:16;3.6;37.8
69634;DHT22;56860;51.144;16.954;2023-12-28T01:49:16;3.4;38.6
69634;DHT22;56860;51.144;16.954;2023-12-28T01:50:16;3.2;39.3
69634;DHT22;56860;51.144;16.954;2023-12-28T01:51:16;3.2;39.8
69634;DHT22;56860;51.144;16.954;2023-12-28T01:52:17;3.1;40.3
69634;DHT22;56860;51.144;16.954;2023-12-28T01:53:16;3.0;40.7
69634;DHT22;56860;51.144;16.954;2023-12-28T01:54:16;3.0;41.0
69634;DHT22;56860;51.144;16.954;2023-12-28T01:55:16;3.0;41.0
69634;DHT22;56860;51.144;16.954;2023-12-28T01:56:17;2.9;41.0
69634;DHT22;56860;51.144;16.954;2023-12-28T01:57:16;2.9;41.0
69634;DHT22;56860;51.144;16.954;2023-12-28T01:58:16;2.7;41.5
69634;DHT22;56860;51.144;16.954;2023-12-28T01:59:16;2.6;42.0
69634;DHT22;56860;51.144;16.954;2023-12-28T02:00:16;2.6;42.1
69634;DHT22;56860;51.144;16.954;2023-12-28T02:01:16;2.6;42.1
69634;DHT22;56860;51.144;16.954;2023-12-28T02:02:16;2.7;42.1
69634;DHT22;56860;51.144;16.954;2023-12-28T02:03:16;2.7;41.9
69634;DHT22;56860;51.144;16.954;2023-12-28T02:04:16;2.8;41.8
69634;DHT22;56860;51.144;16.954;2023-12-28T02:05:17;2.9;41.7
69634;DHT22;56860;51.144;16.954;2023-12-28T02:06:16;2.9;41.6
69634;DHT22;56860;51.144;16.954;2023-12-28T02:07:16;2.9;41.5
69634;DHT22;56860;51.144;16.954;2023-12-28T02:08:16;2.9;41.3
69634;DHT22;56860;51.144;16.954;2023-12-28T02:09:16;2.9;41.3
69634;DHT22;56860;51.144;16.954;2023-12-28T02:10:16;3.0;41.1
69634;DHT22;56860;51.144;16.954;2023-12-28T02:11:17;2.9;40.6
69634;DHT22;56860;51.144;16.954;2023-12-28T02:12:16;2.9;41.0
69634;DHT22;56860;51.144;16.954;2023-12-28T02:13:16;2.9;41.1
69634;DHT22;56860;51.144;16.954;2023-12-28T02:14:17;2.9;41.2
69634;DHT22;56860;51.144;16.954;2023-12-28T02:15:16;2.9;41.3
69634;DHT22;56860;51.144;16.954;2023-12-28T02:16:20;2.9;41.2
69634;DHT22;56860;51.144;16.954;2023-12-28T02:17:19;2.8;41.4
69634;DHT22;56860;51.144;16.954;2023-12-28T02:18:17;2.8;41.6
69634;DHT22;56860;51.144;16.954;2023-12-28T02:19:18;2.7;41.8
69634;DHT22;56860;51.144;16.954;2023-12-28T02:20:17;2.6;41.8
69634;DHT22;56860;51.144;16.954;2023-12-28T02:21:17;2.6;42.0
69634;DHT22;56860;51.144;16.954;2023-12-28T02:22:17;2.6;42.0
69634;DHT22;56860;51.144;16.954;2023-12-28T02:23:17;2.6;42.0
69634;DHT22;56860;51.144;16.954;2023-12-28T02:24:17;2.6;42.0
69634;DHT22;56860;51.144;16.954;2023-12-28T02:25:17;2.7;41.8
69634;DHT22;56860;51.144;16.954;2023-12-28T02:26:17;2.6;41.8
69634;DHT22;56860;51.144;16.954;2023-12-28T02:27:17;2.6;41.8
69634;DHT22;56860;51.144;16.954;2023-12-28T02:28:17;2.6;42.0
69634;DHT22;56860;51.144;16.954;2023-12-28T02:29:17;2.6;42.0
69634;DHT22;56860;51.144;16.954;2023-12-28T02:30:17;2.5;42.1
69634;DHT22;56860;51.144;16.954;2023-12-28T02:31:18;2.5;42.3
69634;DHT22;56860;51.144;16.954;2023-12-28T02:32:17;2.5;42.3
69634;DHT22;56860;51.144;16.954;2023-12-28T02:33:18;2.5;42.3
69634;DHT22;56860;51.144;16.954;2023-12-28T02:36:18;2.6;42.5
69634;DHT22;56860;51.144;16.954;2023-12-28T02:37:17;2.6;42.6
69634;DHT22;56860;51.144;16.954;2023-12-28T02:38:17;2.6;42.5
69634;DHT22;56860;51.144;16.954;2023-12-28T02:39:17;2.6;41.8
69634;DHT22;56860;51.144;16.954;2023-12-28T02:40:17;2.6;42.1
69634;DHT22;56860;51.144;16.954;2023-12-28T02:41:17;2.6;42.2
69634;DHT22;56860;51.144;16.954;2023-12-28T02:42:17;2.6;42.2
69634;DHT22;56860;51.144;16.954;2023-12-28T02:43:17;2.6;42.3
69634;DHT22;56860;51.144;16.954;2023-12-28T02:44:17;2.6;42.5
69634;DHT22;56860;51.144;16.954;2023-12-28T02:45:17;2.6;42.7
69634;DHT22;56860;51.144;16.954;2023-12-28T02:46:17;2.5;43.0
69634;DHT22;56860;51.144;16.954;2023-12-28T02:47:17;2.5;43.1
69634;DHT22;56860;51.144;16.954;2023-12-28T02:48:17;2.5;43.3
69634;DHT22;56860;51.144;16.954;2023-12-28T02:49:17;2.5;43.2
69634;DHT22;56860;51.144;16.954;2023-12-28T02:50:17;2.5;43.2
69634;DHT22;56860;51.144;16.954;2023-12-28T02:51:17;2.5;43.1
69634;DHT22;56860;51.144;16.954;2023-12-28T02:52:17;2.5;43.1
69634;DHT22;56860;51.144;16.954;2023-12-28T02:53:17;2.5;43.2
69634;DHT22;56860;51.144;16.954;2023-12-28T02:54:17;2.5;43.2
69634;DHT22;56860;51.144;16.954;2023-12-28T02:55:17;2.5;43.2
69634;DHT22;56860;51.144;16.954;2023-12-28T02:56:17;2.5;43.3
69634;DHT22;56860;51.144;16.954;2023-12-28T02:57:17;2.5;43.3
69634;DHT22;56860;51.144;16.954;2023-12-28T02:58:18;2.6;43.3
69634;DHT22;56860;51.144;16.954;2023-12-28T02:59:17;2.6;43.3
69634;DHT22;56860;51.144;16.954;2023-12-28T03:00:17;2.6;43.4
69634;DHT22;56860;51.144;16.954;2023-12-28T03:01:17;2.6;43.7
69634;DHT22;56860;51.144;16.954;2023-12-28T03:02:17;2.6;43.9
69634;DHT22;56860;51.144;16.954;2023-12-28T03:03:17;2.6;44.0
69634;DHT22;56860;51.144;16.954;2023-12-28T03:04:17;2.7;44.0
69634;DHT22;56860;51.144;16.954;2023-12-28T03:05:17;2.7;44.1
69634;DHT22;56860;51.144;16.954;2023-12-28T03:06:17;2.8;44.1
69634;DHT22;56860;51.144;16.954;2023-12-28T03:07:17;2.8;44.0
69634;DHT22;56860;51.144;16.954;2023-12-28T03:08:17;2.9;44.1
69634;DHT22;56860;51.144;16.954;2023-12-28T03:09:17;2.9;43.9
69634;DHT22;56860;51.144;16.954;2023-12-28T03:10:17;2.9;43.6
69634;DHT22;56860;51.144;16.954;2023-12-28T03:11:17;2.9;43.1
69634;DHT22;56860;51.144;16.954;2023-12-28T03:12:17;3.0;43.1
69634;DHT22;56860;51.144;16.954;2023-12-28T03:13:17;3.0;43.2
69634;DHT22;56860;51.144;16.954;2023-12-28T03:14:17;3.0;43.3
69634;DHT22;56860;51.144;16.954;2023-12-28T03:15:17;3.1;43.3
69634;DHT22;56860;51.144;16.954;2023-12-28T03:16:17;3.1;43.2
69634;DHT22;56860;51.144;16.954;2023-12-28T03:17:17;3.1;43.2
69634;DHT22;56860;51.144;16.954;2023-12-28T03:18:17;3.1;43.0
69634;DHT22;56860;51.144;16.954;2023-12-28T03:19:17;3.1;42.6
69634;DHT22;56860;51.144;16.954;2023-12-28T03:20:17;3.1;42.7
69634;DHT22;56860;51.144;16.954;2023-12-28T03:21:17;3.1;42.8
69634;DHT22;56860;51.144;16.954;2023-12-28T03:22:17;3.1;43.0
69634;DHT22;56860;51.144;16.954;2023-12-28T03:23:17;3.1;43.0
69634;DHT22;56860;51.144;16.954;2023-12-28T03:24:17;3.1;43.1
69634;DHT22;56860;51.144;16.954;2023-12-28T03:25:17;3.1;42.5
69634;DHT22;56860;51.144;16.954;2023-12-28T03:26:17;3.2;43.3
69634;DHT22;56860;51.144;16.954;2023-12-28T03:27:17;3.2;43.7
69634;DHT22;56860;51.144;16.954;2023-12-28T03:28:17;3.3;43.8
69634;DHT22;56860;51.144;16.954;2023-12-28T03:29:17;3.3;43.7
69634;DHT22;56860;51.144;16.954;2023-12-28T03:30:17;3.4;43.5
69634;DHT22;56860;51.144;16.954;2023-12-28T03:31:17;3.4;43.2
69634;DHT22;56860;51.144;16.954;2023-12-28T03:32:17;3.4;43.1
69634;DHT22;56860;51.144;16.954;2023-12-28T03:33:17;3.4;43.0
69634;DHT22;56860;51.144;16.954;2023-12-28T03:34:17;3.3;43.1
69634;DHT22;56860;51.144;16.954;2023-12-28T03:35:17;3.4;43.2
69634;DHT22;56860;51.144;16.954;2023-12-28T03:36:17;3.4;43.2
69634;DHT22;56860;51.144;16.954;2023-12-28T03:37:17;3.5;43.0
69634;DHT22;56860;51.144;16.954;2023-12-28T03:38:17;3.5;42.8
69634;DHT22;56860;51.144;16.954;2023-12-28T03:39:17;3.6;42.8
69634;DHT22;56860;51.144;16.954;2023-12-28T03:40:17;3.6;42.8
69634;DHT22;56860;51.144;16.954;2023-12-28T03:41:18;3.6;42.6
69634;DHT22;56860;51.144;16.954;2023-12-28T03:42:17;3.7;42.2
69634;DHT22;56860;51.144;16.954;2023-12-28T03:43:17;3.7;41.8
69634;DHT22;56860;51.144;16.954;2023-12-28T03:44:17;3.7;41.4
69634;DHT22;56860;51.144;16.954;2023-12-28T03:45:17;3.7;41.3
69634;DHT22;56860;51.144;16.954;2023-12-28T03:46:17;3.6;41.2
69634;DHT22;56860;51.144;16.954;2023-12-28T03:47:17;3.6;41.3
69634;DHT22;56860;51.144;16.954;2023-12-28T03:48:17;3.6;41.6
69634;DHT22;56860;51.144;16.954;2023-12-28T03:49:17;3.6;41.9
69634;DHT22;56860;51.144;16.954;2023-12-28T03:50:17;3.6;41.9
69634;DHT22;56860;51.144;16.954;2023-12-28T03:51:17;3.5;41.9
69634;DHT22;56860;51.144;16.954;2023-12-28T03:52:17;3.5;42.2
69634;DHT22;56860;51.144;16.954;2023-12-28T03:53:17;3.5;42.2
69634;DHT22;56860;51.144;16.954;2023-12-28T03:54:17;3.4;42.2
69634;DHT22;56860;51.144;16.954;2023-12-28T03:55:17;3.3;42.1
69634;DHT22;56860;51.144;16.954;2023-12-28T03:56:19;3.3;42.2
69634;DHT22;56860;51.144;16.954;2023-12-28T03:57:17;3.2;42.1
69634;DHT22;56860;51.144;16.954;2023-12-28T03:58:17;3.2;41.8
69634;DHT22;56860;51.144;16.954;2023-12-28T03:59:17;3.2;41.8
69634;DHT22;56860;51.144;16.954;2023-12-28T04:00:17;3.1;41.3
69634;DHT22;56860;51.144;16.954;2023-12-28T04:01:17;3.0;41.3
69634;DHT22;56860;51.144;16.954;2023-12-28T04:02:18;2.9;41.4
69634;DHT22;56860;51.144;16.954;2023-12-28T04:03:17;2.9;41.2
69634;DHT22;56860;51.144;16.954;2023-12-28T04:04:17;2.7;41.2
69634;DHT22;56860;51.144;16.954;2023-12-28T04:05:17;2.7;41.4
69634;DHT22;56860;51.144;16.954;2023-12-28T04:06:17;2.6;41.6
69634;DHT22;56860;51.144;16.954;2023-12-28T04:07:17;2.5;41.9
69634;DHT22;56860;51.144;16.954;2023-12-28T04:08:17;2.5;42.2
69634;DHT22;56860;51.144;16.954;2023-12-28T04:09:17;2.5;42.4
69634;DHT22;56860;51.144;16.954;2023-12-28T04:10:19;2.4;42.5
69634;DHT22;56860;51.144;16.954;2023-12-28T04:11:17;2.4;42.5
69634;DHT22;56860;51.144;16.954;2023-12-28T04:12:17;2.4;42.7
69634;DHT22;56860;51.144;16.954;2023-12-28T04:13:17;unavailable;unavailable
69634;DHT22;56860;51.144;16.954;2023-12-28T04:14:17;2.4;43.4
69634;DHT22;56860;51.144;16.954;2023-12-28T04:15:17;2.4;43.8
69634;DHT22;56860;51.144;16.954;2023-12-28T04:16:17;2.4;43.8
69634;DHT22;56860;51.144;16.954;2023-12-28T04:17:17;2.5;43.2
69634;DHT22;56860;51.144;16.954;2023-12-28T04:18:17;2.5;43.6
69634;DHT22;56860;51.144;16.954;2023-12-28T04:19:17;2.5;43.8
69634;DHT22;56860;51.144;16.954;2023-12-28T04:20:17;2.5;44.1
69634;DHT22;56860;51.144;16.954;2023-12-28T04:21:17;2.5;43.8
69634;DHT22;56860;51.144;16.954;2023-12-28T04:22:17;2.5;44.3
69634;DHT22;56860;51.144;16.954;2023-12-28T04:23:17;2.6;44.5
69634;DHT22;56860;51.144;16.954;2023-12-28T04:24:17;2.6;44.4
69634;DHT22;56860;51.144;16.954;2023-12-28T04:25:17;2.7;44.1
69634;DHT22;56860;51.144;16.954;2023-12-28T04:26:17;2.6;43.8
69634;DHT22;56860;51.144;16.954;2023-12-28T04:27:17;2.6;43.7
69634;DHT22;56860;51.144;16.954;2023-12-28T04:28:17;2.5;43.4
69634;DHT22;56860;51.144;16.954;2023-12-28T04:29:17;2.4;43.5
69634;DHT22;56860;51.144;16.954;2023-12-28T04:30:17;2.2;43.7
69634;DHT22;56860;51.144;16.954;2023-12-28T04:31:17;2.1;43.9
69634;DHT22;56860;51.144;16.954;2023-12-28T04:32:17;2.0;43.9
69634;DHT22;56860;51.144;16.954;2023-12-28T04:33:17;2.0;43.9
69634;DHT22;56860;51.144;16.954;2023-12-28T04:34:18;1.6;44.2
69634;DHT22;56860;51.144;16.954;2023-12-28T04:35:17;1.5;44.8
69634;DHT22;56860;51.144;16.954;2023-12-28T04:36:17;1.3;44.9
69634;DHT22;56860;51.144;16.954;2023-12-28T04:37:17;1.3;45.5
69634;DHT22;56860;51.144;16.954;2023-12-28T04:38:17;1.3;45.6
69634;DHT22;56860;51.144;16.954;2023-12-28T04:39:17;1.4;44.9
69634;DHT22;56860;51.144;16.954;2023-12-28T04:40:17;1.4;45.1
69634;DHT22;56860;51.144;16.954;2023-12-28T04:41:17;1.4;44.9
69634;DHT22;56860;51.144;16.954;2023-12-28T04:42:17;1.4;45.0
69634;DHT22;56860;51.144;16.954;2023-12-28T04:43:17;1.5;45.3
69634;DHT22;56860;51.144;16.954;2023-12-28T04:44:17;1.5;45.2
69634;DHT22;56860;51.144;16.954;2023-12-28T04:45:17;1.6;45.4
69634;DHT22;56860;51.144;16.954;2023-12-28T04:46:17;1.7;45.7
69634;DHT22;56860;51.144;16.954;2023-12-28T04:47:17;1.7;45.6
69634;DHT22;56860;51.144;16.954;2023-12-28T04:48:17;1.7;45.3
69634;DHT22;56860;51.144;16.954;2023-12-28T04:49:17;1.8;45.2
69634;DHT22;56860;51.144;16.954;2023-12-28T04:50:17;1.8;45.4
69634;DHT22;56860;51.144;16.954;2023-12-28T04:51:17;1.9;45.6
69634;DHT22;56860;51.144;16.954;2023-12-28T04:52:17;1.9;45.3
69634;DHT22;56860;51.144;16.954;2023-12-28T04:53:17;2.0;45.0
69634;DHT22;56860;51.144;16.954;2023-12-28T04:54:17;2.1;44.9
69634;DHT22;56860;51.144;16.954;2023-12-28T04:55:17;2.1;44.9
69634;DHT22;56860;51.144;16.954;2023-12-28T04:56:18;2.1;44.8
69634;DHT22;56860;51.144;16.954;2023-12-28T04:57:17;2.1;44.9
69634;DHT22;56860;51.144;16.954;2023-12-28T04:58:17;2.1;44.8
69634;DHT22;56860;51.144;16.954;2023-12-28T04:59:17;2.0;45.5
69634;DHT22;56860;51.144;16.954;2023-12-28T05:00:17;2.1;46.0
69634;DHT22;56860;51.144;16.954;2023-12-28T05:01:17;2.2;46.2
69634;DHT22;56860;51.144;16.954;2023-12-28T05:02:17;2.3;46.2
69634;DHT22;56860;51.144;16.954;2023-12-28T05:03:17;2.3;46.1
69634;DHT22;56860;51.144;16.954;2023-12-28T05:04:17;2.4;46.0
69634;DHT22;56860;51.144;16.954;2023-12-28T05:05:17;2.4;45.5
69634;DHT22;56860;51.144;16.954;2023-12-28T05:06:17;2.5;45.3
69634;DHT22;56860;51.144;16.954;2023-12-28T05:07:17;2.5;45.3
69634;DHT22;56860;51.144;16.954;2023-12-28T05:08:17;2.6;45.2
69634;DHT22;56860;51.144;16.954;2023-12-28T05:09:17;2.7;44.7
69634;DHT22;56860;51.144;16.954;2023-12-28T05:10:17;2.9;44.1
69634;DHT22;56860;51.144;16.954;2023-12-28T05:11:17;3.1;43.4
69634;DHT22;56860;51.144;16.954;2023-12-28T05:12:17;3.3;42.2
69634;DHT22;56860;51.144;16.954;2023-12-28T05:13:17;3.5;42.0
69634;DHT22;56860;51.144;16.954;2023-12-28T05:14:17;3.6;41.3
69634;DHT22;56860;51.144;16.954;2023-12-28T05:15:17;3.8;40.7
69634;DHT22;56860;51.144;16.954;2023-12-28T05:16:17;4.0;40.4
69634;DHT22;56860;51.144;16.954;2023-12-28T05:17:17;4.1;39.7
69634;DHT22;56860;51.144;16.954;2023-12-28T05:18:17;4.2;39.1
69634;DHT22;56860;51.144;16.954;2023-12-28T05:19:17;4.3;38.6
69634;DHT22;56860;51.144;16.954;2023-12-28T05:20:17;4.4;38.2
69634;DHT22;56860;51.144;16.954;2023-12-28T05:21:17;4.4;38.0
69634;DHT22;56860;51.144;16.954;2023-12-28T05:22:17;4.4;37.6
69634;DHT22;56860;51.144;16.954;2023-12-28T05:23:17;4.5;37.2
69634;DHT22;56860;51.144;16.954;2023-12-28T05:24:17;4.5;37.3
69634;DHT22;56860;51.144;16.954;2023-12-28T05:25:17;4.6;37.1
69634;DHT22;56860;51.144;16.954;2023-12-28T05:26:17;4.6;36.9
69634;DHT22;56860;51.144;16.954;2023-12-28T05:27:18;4.6;36.8
69634;DHT22;56860;51.144;16.954;2023-12-28T05:28:17;4.6;36.8
69634;DHT22;56860;51.144;16.954;2023-12-28T05:29:17;4.7;36.7
69634;DHT22;56860;51.144;16.954;2023-12-28T05:30:17;4.7;36.7
69634;DHT22;56860;51.144;16.954;2023-12-28T05:31:17;4.8;36.7
69634;DHT22;56860;51.144;16.954;2023-12-28T05:32:17;4.9;36.7
69634;DHT22;56860;51.144;16.954;2023-12-28T05:33:17;4.9;36.6
69634;DHT22;56860;51.144;16.954;2023-12-28T05:34:17;4.9;36.6
69634;DHT22;56860;51.144;16.954;2023-12-28T05:35:17;5.0;36.4
69634;DHT22;56860;51.144;16.954;2023-12-28T05:36:17;5.0;36.2
69634;DHT22;56860;51.144;16.954;2023-12-28T05:37:17;5.1;36.0
69634;DHT22;56860;51.144;16.954;2023-12-28T05:38:18;5.2;36.0
69634;DHT22;56860;51.144;16.954;2023-12-28T05:39:17;5.2;35.9
69634;DHT22;56860;51.144;16.954;2023-12-28T05:40:17;5.3;35.4
69634;DHT22;56860;51.144;16.954;2023-12-28T05:41:17;5.3;35.5
69634;DHT22;56860;51.144;16.954;2023-12-28T05:42:17;5.4;35.6
69634;DHT22;56860;51.144;16.954;2023-12-28T05:43:17;5.4;35.6
69634;DHT22;56860;51.144;16.954;2023-12-28T05:44:17;5.4;35.4
69634;DHT22;56860;51.144;16.954;2023-12-28T05:45:17;5.4;35.4
69634;DHT22;56860;51.144;16.954;2023-12-28T05:46:17;5.5;35.2
69634;DHT22;56860;51.144;16.954;2023-12-28T05:47:17;5.5;35.1
69634;DHT22;56860;51.144;16.954;2023-12-28T05:48:17;5.6;35.1
69634;DHT22;56860;51.144;16.954;2023-12-28T05:49:17;5.7;34.9
69634;DHT22;56860;51.144;16.954;2023-12-28T05:50:17;5.7;34.6
69634;DHT22;56860;51.144;16.954;2023-12-28T05:51:17;5.8;34.4
69634;DHT22;56860;51.144;16.954;2023-12-28T05:52:17;5.8;34.2
69634;DHT22;56860;51.144;16.954;2023-12-28T05:53:17;5.8;34.1
69634;DHT22;56860;51.144;16.954;2023-12-28T05:54:17;5.8;34.1
69634;DHT22;56860;51.144;16.954;2023-12-28T05:55:17;5.8;34.0
69634;DHT22;56860;51.144;16.954;2023-12-28T05:56:17;5.8;33.8
69634;DHT22;56860;51.144;16.954;2023-12-28T05:57:17;5.9;33.7
69634;DHT22;56860;51.144;16.954;2023-12-28T05:58:17;5.8;33.6
69634;DHT22;56860;51.144;16.954;2023-12-28T05:59:17;5.8;33.6
69634;DHT22;56860;51.144;16.954;2023-12-28T06:00:17;5.8;33.6
69634;DHT22;56860;51.144;16.954;2023-12-28T06:01:17;5.8;33.6
69634;DHT22;56860;51.144;16.954;2023-12-28T06:02:17;5.8;33.6
69634;DHT22;56860;51.144;16.954;2023-12-28T06:03:17;5.8;33.5
69634;DHT22;56860;51.144;16.954;2023-12-28T06:04:17;5.8;33.3
69634;DHT22;56860;51.144;16.954;2023-12-28T06:05:17;5.9;33.2
69634;DHT22;56860;51.144;16.954;2023-12-28T06:06:17;5.9;33.1
69634;DHT22;56860;51.144;16.954;2023-12-28T06:07:17;5.9;32.8
69634;DHT22;56860;51.144;16.954;2023-12-28T06:08:17;6.0;32.8
69634;DHT22;56860;51.144;16.954;2023-12-28T06:09:17;6.0;32.7
69634;DHT22;56860;51.144;16.954;2023-12-28T06:10:17;6.0;32.7
69634;DHT22;56860;51.144;16.954;2023-12-28T06:11:17;6.0;32.5
69634;DHT22;56860;51.144;16.954;2023-12-28T06:12:17;6.0;32.6
69634;DHT22;56860;51.144;16.954;2023-12-28T06:13:17;5.9;32.5
69634;DHT22;56860;51.144;16.954;2023-12-28T06:14:17;6.0;32.4
69634;DHT22;56860;51.144;16.954;2023-12-28T06:15:17;6.0;32.4
69634;DHT22;56860;51.144;16.954;2023-12-28T06:16:17;6.0;32.0
69634;DHT22;56860;51.144;16.954;2023-12-28T06:17:17;6.0;31.1
69634;DHT22;56860;51.144;16.954;2023-12-28T06:18:17;6.0;31.6
69634;DHT22;56860;51.144;16.954;2023-12-28T06:19:17;6.1;31.7
69634;DHT22;56860;51.144;16.954;2023-12-28T06:20:18;6.2;31.4
69634;DHT22;56860;51.144;16.954;2023-12-28T06:21:17;6.2;31.4
69634;DHT22;56860;51.144;16.954;2023-12-28T06:22:17;6.2;31.2
69634;DHT22;56860;51.144;16.954;2023-12-28T06:23:17;6.2;31.3
69634;DHT22;56860;51.144;16.954;2023-12-28T06:24:17;6.2;31.2
69634;DHT22;56860;51.144;16.954;2023-12-28T06:25:17;6.1;31.1
69634;DHT22;56860;51.144;16.954;2023-12-28T06:26:17;6.2;31.2
69634;DHT22;56860;51.144;16.954;2023-12-28T06:27:17;6.3;30.9
69634;DHT22;56860;51.144;16.954;2023-12-28T06:28:17;6.3;30.6
69634;DHT22;56860;51.144;16.954;2023-12-28T06:29:17;6.3;30.4
69634;DHT22;56860;51.144;16.954;2023-12-28T06:30:17;6.4;30.5
69634;DHT22;56860;51.144;16.954;2023-12-28T06:31:17;6.4;30.3
69634;DHT22;56860;51.144;16.954;2023-12-28T06:32:17;6.4;30.2